Time;durP1;ratioP1;P1;durP2;ratioP2;P2;SDS_P1;SDS_P2;PMS_P1;PMS_P2;Temp;Humidity;BMP_temperature;BMP_pressure;BME280_temperature;BME280_humidity;BME280_pressure;Samples;Min_cycle;Max_cycle;Signal;HPM_P1;HPM_P2
2021/08/28 00:02:01;;;;;;;13.68;2.70;;;;;;;;;;4971939;28;20498;-45
2021/08/28 00:04:27;;;;;;;12.48;6.13;;;;;;;;;;4971955;28;20042;-44
2021/08/28 00:06:53;;;;;;;25.48;3.13;;;;;;;;;;4971846;28;20193;-48
2021/08/28 00:09:19;;;;;;;19.60;7.53;;;;;;;;;;4971695;28;20085;-44
2021/08/28 00:11:45;;;;;;;24.83;5.28;;;;;;;;;;4972067;28;20118;-45
2021/08/28 00:14:11;;;;;;;18.08;10.35;;;;;;;;;;4971860;28;20035;-44
2021/08/28 00:16:38;;;;;;;26.63;9.63;;;;;;;;;;4971532;28;20034;-44
2021/08/28 00:19:04;;;;;;;12.93;8.73;;;;;;;;;;4971314;28;20049;-49
2021/08/28 00:21:34;;;;;;;32.13;18.30;;;;;;;;;;4972099;28;20446;-43
2021/08/28 00:24:00;;;;;;;38.13;21.15;;;;;;;;;;4971684;28;20101;-44
2021/08/28 00:26:26;;;;;;;44.20;22.13;;;;;;;;;;4971439;28;20026;-44
2021/08/28 00:28:52;;;;;;;60.08;31.67;;;;;;;;;;4990462;28;20031;-52
2021/08/28 00:31:19;;;;;;;71.28;38.65;;;;;;;;;;4996188;28;20482;-53
2021/08/28 00:33:45;;;;;;;59.10;31.52;;;;;;;;;;4996394;28;20025;-49
2021/08/28 00:36:11;;;;;;;29.77;15.23;;;;;;;;;;4996191;28;20113;-50
2021/08/28 00:38:37;;;;;;;24.98;10.98;;;;;;;;;;4996381;28;20030;-49
2021/08/28 00:41:03;;;;;;;40.83;22.08;;;;;;;;;;4996202;28;20096;-50
2021/08/28 00:43:29;;;;;;;67.80;33.42;;;;;;;;;;4995905;28;20392;-51
2021/08/28 00:45:55;;;;;;;55.42;28.83;;;;;;;;;;4995960;28;20030;-49
2021/08/28 00:48:22;;;;;;;42.25;23.52;;;;;;;;;;4995937;28;20027;-50
2021/08/28 00:50:48;;;;;;;32.65;18.13;;;;;;;;;;4996060;28;20030;-50
2021/08/28 00:53:20;;;;;;;34.00;17.85;;;;;;;;;;4995861;28;20098;-51
2021/08/28 00:55:49;;;;;;;54.42;29.58;;;;;;;;;;4996138;28;20511;-50
2021/08/28 00:58:16;;;;;;;37.30;18.80;;;;;;;;;;4995845;28;20076;-51
2021/08/28 01:00:42;;;;;;;41.10;21.85;;;;;;;;;;4995743;28;20041;-50
2021/08/28 01:03:11;;;;;;;52.03;26.50;;;;;;;;;;4995531;28;20129;-49
2021/08/28 01:05:43;;;;;;;108.82;57.50;;;;;;;;;;4996069;28;20045;-50
2021/08/28 01:08:12;;;;;;;14.65;9.05;;;;;;;;;;4995445;28;20450;-48
2021/08/28 01:10:42;;;;;;;15.77;8.32;;;;;;;;;;4995429;28;20054;-50
2021/08/28 01:13:11;;;;;;;6.43;5.05;;;;;;;;;;4995635;28;20064;-50
2021/08/28 01:15:38;;;;;;;19.70;11.77;;;;;;;;;;4995682;28;20023;-49
2021/08/28 01:18:05;;;;;;;19.73;10.20;;;;;;;;;;4995661;28;20029;-50
2021/08/28 01:20:31;;;;;;;25.92;14.30;;;;;;;;;;4995413;28;20026;-50
2021/08/28 01:22:58;;;;;;;49.60;25.40;;;;;;;;;;4995346;28;20038;-50
2021/08/28 01:25:27;;;;;;;31.65;17.95;;;;;;;;;;4995288;28;20092;-50
2021/08/28 01:27:57;;;;;;;19.73;11.60;;;;;;;;;;4995406;28;20145;-49
2021/08/28 01:30:26;;;;;;;11.32;5.80;;;;;;;;;;4994601;28;20026;-49
2021/08/28 01:32:52;;;;;;;6.05;3.60;;;;;;;;;;4995242;28;20038;-50
2021/08/28 01:35:19;;;;;;;8.93;2.10;;;;;;;;;;4995251;28;20545;-48
2021/08/28 01:37:45;;;;;;;3.58;2.50;;;;;;;;;;4995259;28;20105;-49
2021/08/28 01:40:12;;;;;;;10.13;6.03;;;;;;;;;;4995011;28;20026;-48
2021/08/28 01:42:39;;;;;;;15.13;9.80;;;;;;;;;;4995050;28;20049;-50
2021/08/28 01:45:11;;;;;;;33.20;20.15;;;;;;;;;;4994964;28;20491;-50
2021/08/28 01:47:38;;;;;;;31.63;18.25;;;;;;;;;;4995175;28;20378;-49
2021/08/28 01:50:04;;;;;;;10.93;6.35;;;;;;;;;;4994893;28;20093;-49
2021/08/28 01:52:30;;;;;;;14.07;7.70;;;;;;;;;;4994910;28;20483;-48
2021/08/28 01:54:59;;;;;;;47.58;24.48;;;;;;;;;;4994747;28;20026;-49
2021/08/28 01:57:25;;;;;;;27.27;14.73;;;;;;;;;;4994704;28;20025;-49
2021/08/28 01:59:51;;;;;;;20.52;11.50;;;;;;;;;;4994717;28;20040;-50
2021/08/28 02:02:17;;;;;;;38.97;22.58;;;;;;;;;;4995236;28;20179;-50
2021/08/28 02:04:44;;;;;;;42.38;23.02;;;;;;;;;;4994782;28;20072;-51
2021/08/28 02:07:12;;;;;;;28.38;16.83;;;;;;;;;;4994455;28;20029;-51
2021/08/28 02:09:41;;;;;;;20.90;12.68;;;;;;;;;;4994381;28;20050;-50
2021/08/28 02:12:15;;;;;;;14.27;7.38;;;;;;;;;;4994203;28;20054;-51
2021/08/28 02:15:13;;;;;;;13.20;8.20;;;;;;;;;;4994402;28;20101;-50
2021/08/28 02:17:42;;;;;;;7.88;4.65;;;;;;;;;;4953768;29;20043;-50
2021/08/28 02:20:09;;;;;;;7.55;4.93;;;;;;;;;;4953636;29;20520;-50
2021/08/28 02:22:39;;;;;;;6.95;5.18;;;;;;;;;;4953546;29;20038;-50
2021/08/28 02:25:08;;;;;;;4.50;3.38;;;;;;;;;;4953458;29;20050;-48
2021/08/28 02:27:41;;;;;;;4.65;2.85;;;;;;;;;;4953536;29;20082;-50
2021/08/28 02:30:10;;;;;;;5.30;3.42;;;;;;;;;;4953452;29;20031;-50
2021/08/28 02:32:38;;;;;;;4.00;3.05;;;;;;;;;;4953424;29;20038;-49
2021/08/28 02:35:08;;;;;;;2.30;2.08;;;;;;;;;;4953418;29;20040;-49
2021/08/28 02:37:34;;;;;;;4.30;2.30;;;;;;;;;;4953199;29;20058;-49
2021/08/28 02:40:02;;;;;;;2.55;2.25;;;;;;;;;;4952963;28;20043;-49
2021/08/28 02:42:28;;;;;;;2.78;2.50;;;;;;;;;;4953277;29;20044;-49
2021/08/28 02:44:54;;;;;;;4.30;2.63;;;;;;;;;;4953197;29;20508;-49
2021/08/28 02:47:24;;;;;;;4.10;2.70;;;;;;;;;;4953313;29;20122;-50
2021/08/28 02:49:51;;;;;;;3.42;2.20;;;;;;;;;;4953135;29;20035;-49
2021/08/28 02:52:19;;;;;;;3.67;2.45;;;;;;;;;;4957241;28;20027;-50
2021/08/28 02:54:46;;;;;;;2.10;1.90;;;;;;;;;;4993852;28;20058;-51
2021/08/28 02:57:12;;;;;;;3.15;2.42;;;;;;;;;;4993969;28;20093;-50
2021/08/28 02:59:40;;;;;;;3.53;2.70;;;;;;;;;;4993746;28;20055;-50
2021/08/28 03:02:06;;;;;;;2.58;1.90;;;;;;;;;;4993799;28;20487;-50
2021/08/28 03:04:34;;;;;;;5.55;2.10;;;;;;;;;;4993678;28;20035;-49
2021/08/28 03:07:01;;;;;;;2.00;1.70;;;;;;;;;;4993772;28;20062;-50
2021/08/28 03:09:27;;;;;;;2.50;1.77;;;;;;;;;;4993741;28;20057;-50
2021/08/28 03:11:53;;;;;;;3.25;1.60;;;;;;;;;;4993721;28;20038;-50
2021/08/28 03:14:19;;;;;;;8.32;1.38;;;;;;;;;;4993534;28;20061;-49
2021/08/28 03:16:51;;;;;;;5.30;1.20;;;;;;;;;;4993933;28;20051;-49
2021/08/28 03:19:20;;;;;;;1.77;1.58;;;;;;;;;;4993460;28;20031;-49
2021/08/28 03:21:47;;;;;;;1.65;1.10;;;;;;;;;;4993889;28;20033;-50
2021/08/28 03:24:13;;;;;;;2.63;1.48;;;;;;;;;;4993557;28;20566;-49
2021/08/28 03:26:40;;;;;;;3.63;1.50;;;;;;;;;;4993714;28;20497;-49
2021/08/28 03:29:06;;;;;;;3.25;1.73;;;;;;;;;;4993577;28;20390;-50
2021/08/28 03:31:32;;;;;;;2.03;1.42;;;;;;;;;;4993559;28;20057;-51
2021/08/28 03:33:59;;;;;;;3.05;1.80;;;;;;;;;;4993519;28;20077;-51
2021/08/28 03:36:25;;;;;;;1.92;1.60;;;;;;;;;;4993438;28;20039;-48
2021/08/28 03:38:54;;;;;;;1.83;1.73;;;;;;;;;;4993415;28;20026;-50
2021/08/28 03:41:20;;;;;;;2.33;1.80;;;;;;;;;;4993653;28;20168;-49
2021/08/28 03:43:46;;;;;;;2.47;2.28;;;;;;;;;;4993223;28;20089;-50
2021/08/28 03:46:13;;;;;;;6.07;2.25;;;;;;;;;;4993507;28;20037;-48
2021/08/28 03:48:42;;;;;;;15.00;2.40;;;;;;;;;;4993539;28;20026;-50
2021/08/28 03:51:08;;;;;;;15.30;2.97;;;;;;;;;;4993599;28;20313;-51
2021/08/28 03:53:34;;;;;;;12.60;2.70;;;;;;;;;;4995797;28;20053;-51
2021/08/28 03:56:01;;;;;;;12.90;3.78;;;;;;;;;;4997352;28;20033;-49
2021/08/28 03:58:27;;;;;;;15.63;3.00;;;;;;;;;;4997090;28;20081;-51
2021/08/28 04:00:53;;;;;;;17.05;2.50;;;;;;;;;;4996898;28;20027;-51
2021/08/28 04:03:20;;;;;;;5.82;3.13;;;;;;;;;;4996843;28;20387;-51
2021/08/28 04:05:46;;;;;;;11.02;3.30;;;;;;;;;;4996669;28;20093;-50
2021/08/28 04:08:13;;;;;;;13.90;3.25;;;;;;;;;;4996590;28;20022;-50
2021/08/28 04:10:39;;;;;;;4.40;3.08;;;;;;;;;;4996602;28;20059;-51
2021/08/28 04:13:05;;;;;;;4.90;2.75;;;;;;;;;;4996573;28;20077;-49
2021/08/28 04:15:31;;;;;;;5.55;2.90;;;;;;;;;;4996802;28;20115;-48
2021/08/28 04:17:57;;;;;;;8.85;2.63;;;;;;;;;;4996643;28;20030;-51
2021/08/28 04:20:23;;;;;;;3.53;2.30;;;;;;;;;;4996427;28;20109;-51
2021/08/28 04:22:52;;;;;;;4.72;2.20;;;;;;;;;;4996580;28;20386;-51
2021/08/28 04:25:18;;;;;;;3.25;2.72;;;;;;;;;;4996481;28;20026;-46
2021/08/28 04:27:44;;;;;;;3.85;2.72;;;;;;;;;;4996342;28;20105;-51
2021/08/28 04:30:10;;;;;;;3.35;2.75;;;;;;;;;;4996302;28;20074;-49
2021/08/28 04:32:36;;;;;;;5.93;2.92;;;;;;;;;;4996215;28;20029;-49
2021/08/28 04:35:02;;;;;;;5.40;3.10;;;;;;;;;;4996248;28;20081;-51
2021/08/28 04:37:28;;;;;;;3.10;2.80;;;;;;;;;;4996244;28;20048;-50
2021/08/28 04:39:55;;;;;;;5.45;2.72;;;;;;;;;;4996254;28;20581;-50
2021/08/28 04:42:21;;;;;;;7.75;2.65;;;;;;;;;;4996659;28;20038;-52
2021/08/28 04:44:47;;;;;;;3.20;2.42;;;;;;;;;;4996059;28;20121;-51
2021/08/28 04:47:13;;;;;;;5.93;3.05;;;;;;;;;;4996118;28;20026;-50
2021/08/28 04:49:39;;;;;;;4.95;2.75;;;;;;;;;;4995957;28;20034;-50
2021/08/28 04:52:06;;;;;;;3.53;2.83;;;;;;;;;;4996125;28;20041;-50
2021/08/28 04:54:32;;;;;;;3.85;2.45;;;;;;;;;;4996235;28;20041;-50
2021/08/28 04:56:59;;;;;;;3.47;2.65;;;;;;;;;;4995853;28;20173;-44
2021/08/28 04:59:27;;;;;;;7.43;3.00;;;;;;;;;;4995931;28;20030;-50
2021/08/28 05:01:55;;;;;;;4.05;2.13;;;;;;;;;;4996048;28;20026;-48
2021/08/28 05:04:21;;;;;;;4.85;2.35;;;;;;;;;;4995823;28;20034;-50
2021/08/28 05:06:47;;;;;;;9.35;2.28;;;;;;;;;;4996127;28;20019;-49
2021/08/28 05:09:13;;;;;;;8.07;2.28;;;;;;;;;;4995641;28;20098;-48
2021/08/28 05:11:41;;;;;;;11.93;2.22;;;;;;;;;;4995944;28;20054;-46
2021/08/28 05:14:07;;;;;;;4.07;3.00;;;;;;;;;;4996081;28;20023;-49
2021/08/28 05:16:33;;;;;;;9.88;3.13;;;;;;;;;;4995779;28;20023;-45
2021/08/28 05:19:00;;;;;;;9.32;2.80;;;;;;;;;;4995630;28;20471;-48
2021/08/28 05:21:26;;;;;;;6.60;3.60;;;;;;;;;;4995572;28;20034;-49
2021/08/28 05:23:52;;;;;;;5.55;3.42;;;;;;;;;;4995451;28;20190;-47
2021/08/28 05:26:18;;;;;;;4.30;3.15;;;;;;;;;;4995503;28;20026;-47
2021/08/28 05:28:45;;;;;;;20.75;7.32;;;;;;;;;;4995475;28;20061;-48
2021/08/28 05:31:11;;;;;;;8.93;5.88;;;;;;;;;;4995651;28;20084;-49
2021/08/28 05:33:37;;;;;;;14.45;8.88;;;;;;;;;;4995335;28;20022;-49
2021/08/28 05:36:03;;;;;;;8.15;5.47;;;;;;;;;;4995192;28;20038;-50
2021/08/28 05:38:29;;;;;;;6.18;3.88;;;;;;;;;;4995319;28;20028;-49
2021/08/28 05:40:55;;;;;;;13.77;8.20;;;;;;;;;;4995318;28;20372;-48
2021/08/28 05:43:21;;;;;;;18.67;11.23;;;;;;;;;;4995177;28;20023;-52
2021/08/28 05:45:47;;;;;;;66.28;30.50;;;;;;;;;;4995162;28;20101;-50
2021/08/28 05:48:13;;;;;;;40.28;19.15;;;;;;;;;;4995159;28;20509;-49
2021/08/28 05:50:39;;;;;;;25.77;13.02;;;;;;;;;;4994921;28;20415;-47
2021/08/28 05:53:08;;;;;;;37.72;19.63;;;;;;;;;;4994971;28;20034;-47
2021/08/28 05:55:34;;;;;;;20.60;12.50;;;;;;;;;;4995131;28;20025;-51
2021/08/28 05:58:00;;;;;;;30.08;17.08;;;;;;;;;;4994808;28;20027;-51
2021/08/28 06:00:26;;;;;;;23.00;12.27;;;;;;;;;;4994798;28;20026;-51
2021/08/28 06:02:52;;;;;;;12.98;8.65;;;;;;;;;;4995260;28;20456;-49
2021/08/28 06:05:18;;;;;;;11.10;7.32;;;;;;;;;;4994617;28;20045;-49
2021/08/28 06:07:44;;;;;;;15.02;7.78;;;;;;;;;;4994693;28;20026;-52
2021/08/28 06:10:10;;;;;;;13.98;7.30;;;;;;;;;;4994739;28;20051;-52
2021/08/28 06:12:37;;;;;;;8.25;5.55;;;;;;;;;;4995020;28;20031;-48
2021/08/28 06:15:06;;;;;;;28.75;5.20;;;;;;;;;;4994091;28;20027;-52
2021/08/28 06:17:33;;;;;;;10.38;6.13;;;;;;;;;;4994864;28;20446;-51
2021/08/28 06:19:59;;;;;;;9.65;6.72;;;;;;;;;;4994762;28;20086;-51
2021/08/28 06:22:25;;;;;;;33.70;7.00;;;;;;;;;;4994447;28;20029;-50
2021/08/28 06:24:51;;;;;;;14.32;8.18;;;;;;;;;;4994518;28;20034;-50
2021/08/28 06:27:17;;;;;;;16.23;7.55;;;;;;;;;;4994295;28;20018;-49
2021/08/28 06:29:43;;;;;;;22.13;9.82;;;;;;;;;;4994369;28;20439;-50
2021/08/28 06:32:09;;;;;;;21.60;10.13;;;;;;;;;;4994631;28;20463;-51
2021/08/28 06:34:36;;;;;;;54.75;27.20;;;;;;;;;;4994246;28;20034;-52
2021/08/28 06:37:04;;;;;;;23.45;13.38;;;;;;;;;;4994495;28;20030;-55
2021/08/28 06:39:35;;;;;;;29.35;17.88;;;;;;;;;;4994253;28;20027;-52
2021/08/28 06:42:02;;;;;;;30.33;17.30;;;;;;;;;;4994489;28;20053;-48
2021/08/28 06:44:28;;;;;;;24.67;13.85;;;;;;;;;;4993977;28;20069;-50
2021/08/28 06:46:54;;;;;;;12.02;8.30;;;;;;;;;;4994091;28;20451;-46
2021/08/28 06:49:20;;;;;;;15.55;10.18;;;;;;;;;;4993919;28;20027;-50
2021/08/28 06:51:46;;;;;;;6.50;4.47;;;;;;;;;;4993889;28;20027;-48
2021/08/28 06:54:12;;;;;;;9.00;5.55;;;;;;;;;;4993969;28;20034;-50
2021/08/28 06:56:38;;;;;;;5.60;4.40;;;;;;;;;;4994071;28;20027;-48
2021/08/28 06:59:07;;;;;;;4.57;3.42;;;;;;;;;;4994049;28;20031;-47
2021/08/28 07:01:33;;;;;;;4.53;3.97;;;;;;;;;;4992579;28;20501;-48
2021/08/28 07:03:59;;;;;;;3.95;3.53;;;;;;;;;;4994373;28;20360;-45
2021/08/28 07:06:25;;;;;;;4.70;3.70;;;;;;;;;;4994355;28;20434;-49
2021/08/28 07:08:51;;;;;;;5.45;3.45;;;;;;;;;;4993667;28;20034;-48
2021/08/28 07:11:17;;;;;;;4.47;3.83;;;;;;;;;;4994034;28;20042;-46
2021/08/28 07:13:43;;;;;;;6.07;3.83;;;;;;;;;;4993811;28;20026;-45
2021/08/28 07:16:09;;;;;;;12.02;6.93;;;;;;;;;;4993786;28;20034;-46
2021/08/28 07:18:35;;;;;;;5.38;3.47;;;;;;;;;;4993750;28;20045;-45
2021/08/28 07:21:01;;;;;;;16.60;10.13;;;;;;;;;;4993685;28;20057;-45
2021/08/28 07:23:28;;;;;;;30.15;16.42;;;;;;;;;;4993699;28;20089;-47
2021/08/28 07:25:54;;;;;;;10.45;6.93;;;;;;;;;;4993816;28;20037;-47
2021/08/28 07:28:22;;;;;;;7.00;4.35;;;;;;;;;;4995726;28;20104;-49
2021/08/28 07:30:48;;;;;;;13.18;6.72;;;;;;;;;;4997700;28;20030;-50
2021/08/28 07:33:16;;;;;;;8.73;5.43;;;;;;;;;;4997594;28;20109;-49
2021/08/28 07:35:45;;;;;;;13.27;6.18;;;;;;;;;;4997295;28;20019;-50
2021/08/28 07:38:12;;;;;;;5.63;3.70;;;;;;;;;;4997402;28;20509;-49
2021/08/28 07:40:38;;;;;;;6.32;4.50;;;;;;;;;;4997523;28;20068;-50
2021/08/28 07:43:04;;;;;;;5.78;4.20;;;;;;;;;;4997774;28;20494;-49
2021/08/28 07:45:30;;;;;;;19.10;12.63;;;;;;;;;;4997234;28;20058;-46
2021/08/28 07:47:56;;;;;;;7.82;5.65;;;;;;;;;;4997460;28;20042;-48
2021/08/28 07:50:22;;;;;;;10.90;7.18;;;;;;;;;;4997238;28;20098;-48
2021/08/28 07:52:48;;;;;;;8.88;6.00;;;;;;;;;;4997368;28;20029;-49
2021/08/28 07:55:15;;;;;;;7.07;5.20;;;;;;;;;;4997179;28;20478;-49
2021/08/28 07:57:44;;;;;;;11.98;7.82;;;;;;;;;;4997278;28;20087;-48
2021/08/28 08:00:11;;;;;;;9.73;6.80;;;;;;;;;;4996387;28;20150;-49
2021/08/28 08:02:37;;;;;;;9.88;5.30;;;;;;;;;;4996522;28;20026;-49
2021/08/28 08:05:03;;;;;;;5.15;4.65;;;;;;;;;;4996292;28;20113;-47
2021/08/28 08:07:29;;;;;;;6.22;4.97;;;;;;;;;;4996334;28;20018;-46
2021/08/28 08:09:56;;;;;;;10.15;6.63;;;;;;;;;;4996033;28;20130;-46
2021/08/28 08:12:24;;;;;;;6.38;5.07;;;;;;;;;;4996296;28;20435;-43
2021/08/28 08:14:50;;;;;;;6.68;4.45;;;;;;;;;;4995982;28;20039;-47
2021/08/28 08:17:16;;;;;;;19.90;10.60;;;;;;;;;;4995875;28;20466;-44
2021/08/28 08:19:43;;;;;;;47.58;27.83;;;;;;;;;;4996381;28;20029;-45
2021/08/28 08:22:09;;;;;;;41.65;23.45;;;;;;;;;;4995795;28;20113;-51
2021/08/28 08:24:35;;;;;;;8.82;5.70;;;;;;;;;;4996344;28;20041;-51
2021/08/28 08:27:02;;;;;;;59.42;30.48;;;;;;;;;;4996438;28;20025;-47
2021/08/28 08:29:28;;;;;;;24.42;14.40;;;;;;;;;;4995686;28;20061;-49
2021/08/28 08:31:54;;;;;;;5.15;4.47;;;;;;;;;;4995655;28;20022;-48
2021/08/28 08:34:20;;;;;;;10.13;4.65;;;;;;;;;;4995422;28;20101;-45
2021/08/28 08:36:47;;;;;;;5.60;3.97;;;;;;;;;;4995952;28;20419;-43
2021/08/28 08:39:13;;;;;;;12.65;6.60;;;;;;;;;;4995121;28;20510;-47
2021/08/28 08:41:42;;;;;;;17.75;10.27;;;;;;;;;;4996081;28;20046;-49
2021/08/28 08:44:08;;;;;;;12.55;6.70;;;;;;;;;;4995829;28;20038;-49
2021/08/28 08:46:35;;;;;;;8.88;6.35;;;;;;;;;;4995617;28;20035;-50
2021/08/28 08:49:03;;;;;;;8.07;4.97;;;;;;;;;;4995533;28;20053;-49
2021/08/28 08:51:30;;;;;;;7.55;4.68;;;;;;;;;;4995558;28;20022;-48
2021/08/28 08:53:57;;;;;;;6.20;4.97;;;;;;;;;;4995409;28;20019;-49
2021/08/28 08:56:23;;;;;;;5.38;4.88;;;;;;;;;;4995582;28;20029;-49
2021/08/28 08:58:52;;;;;;;5.25;4.40;;;;;;;;;;4995246;28;20458;-47
2021/08/28 09:01:21;;;;;;;8.75;5.43;;;;;;;;;;4995312;28;20018;-50
2021/08/28 09:03:47;;;;;;;9.20;5.47;;;;;;;;;;4995207;28;20335;-50
2021/08/28 09:06:14;;;;;;;8.00;5.53;;;;;;;;;;4995072;28;20440;-50
2021/08/28 09:08:40;;;;;;;7.07;5.70;;;;;;;;;;4995153;28;20034;-46
2021/08/28 09:11:19;;;;;;;5.88;5.28;;;;;;;;;;4995072;28;20041;-48
2021/08/28 09:13:46;;;;;;;8.80;5.32;;;;;;;;;;4993864;28;20015;-47
2021/08/28 09:16:12;;;;;;;7.80;6.07;;;;;;;;;;4994809;28;20020;-47
2021/08/28 09:18:56;;;;;;;7.82;5.13;;;;;;;;;;4994719;28;20363;-48
2021/08/28 09:21:23;;;;;;;7.80;5.18;;;;;;;;;;4994535;28;20076;-48
2021/08/28 09:23:50;;;;;;;6.15;5.18;;;;;;;;;;4995131;28;20080;-47
2021/08/28 09:26:29;;;;;;;8.60;5.22;;;;;;;;;;4994706;28;20036;-49
2021/08/28 09:28:56;;;;;;;7.28;5.03;;;;;;;;;;4993226;28;20097;-47
2021/08/28 09:31:39;;;;;;;7.78;5.75;;;;;;;;;;4993241;28;20062;-49
2021/08/28 09:34:17;;;;;;;12.27;7.85;;;;;;;;;;4993562;28;20475;-48
2021/08/28 09:36:43;;;;;;;17.17;7.70;;;;;;;;;;4993214;28;20367;-47
2021/08/28 09:39:09;;;;;;;8.68;5.80;;;;;;;;;;4994590;28;20372;-47
2021/08/28 09:41:36;;;;;;;15.10;8.52;;;;;;;;;;4994376;28;20022;-47
2021/08/28 09:44:08;;;;;;;11.88;7.03;;;;;;;;;;4994353;28;20026;-47
2021/08/28 09:46:34;;;;;;;7.65;5.47;;;;;;;;;;4991780;28;20101;-48
2021/08/28 09:49:01;;;;;;;9.48;7.10;;;;;;;;;;4994798;28;20026;-48
2021/08/28 09:51:33;;;;;;;8.70;5.95;;;;;;;;;;4993494;28;20077;-47
2021/08/28 09:54:00;;;;;;;7.53;5.78;;;;;;;;;;4992435;28;20022;-48
2021/08/28 09:56:29;;;;;;;8.10;6.05;;;;;;;;;;4994047;28;20027;-48
2021/08/28 09:58:55;;;;;;;7.28;5.70;;;;;;;;;;4994343;28;20039;-48
2021/08/28 10:01:22;;;;;;;7.30;5.60;;;;;;;;;;4991546;28;20018;-48
2021/08/28 10:04:01;;;;;;;6.18;5.30;;;;;;;;;;4994138;28;20026;-48
2021/08/28 10:06:27;;;;;;;7.82;5.40;;;;;;;;;;4992257;28;20038;-48
2021/08/28 10:08:54;;;;;;;5.55;4.95;;;;;;;;;;4992017;28;20092;-51
2021/08/28 10:11:20;;;;;;;7.38;5.53;;;;;;;;;;4993621;28;20065;-48
2021/08/28 10:13:49;;;;;;;7.43;4.85;;;;;;;;;;4993789;28;20029;-52
2021/08/28 10:16:16;;;;;;;6.72;5.70;;;;;;;;;;4993724;28;20145;-49
2021/08/28 10:18:45;;;;;;;7.88;5.97;;;;;;;;;;4991236;28;20022;-49
2021/08/28 10:21:11;;;;;;;6.68;5.82;;;;;;;;;;4993432;28;20360;-48
2021/08/28 10:23:40;;;;;;;9.00;5.82;;;;;;;;;;4993450;28;20019;-47
2021/08/28 10:26:10;;;;;;;9.40;7.47;;;;;;;;;;4993822;28;20030;-46
2021/08/28 10:28:38;;;;;;;8.77;5.97;;;;;;;;;;4993701;28;20133;-49
2021/08/28 10:31:05;;;;;;;6.63;5.82;;;;;;;;;;4993534;28;20093;-49
2021/08/28 10:33:31;;;;;;;7.97;5.47;;;;;;;;;;4993461;28;20034;-47
2021/08/28 10:35:57;;;;;;;7.25;5.50;;;;;;;;;;4993685;28;20030;-48
2021/08/28 10:38:24;;;;;;;7.53;5.82;;;;;;;;;;4993656;28;20023;-49
2021/08/28 10:40:55;;;;;;;7.75;5.60;;;;;;;;;;4993971;28;20533;-50
2021/08/28 10:43:21;;;;;;;8.32;6.72;;;;;;;;;;4993922;28;20030;-51
2021/08/28 10:45:48;;;;;;;8.82;6.43;;;;;;;;;;4993811;28;20045;-54
2021/08/28 10:48:15;;;;;;;10.45;6.78;;;;;;;;;;4993292;28;20022;-49
2021/08/28 10:50:43;;;;;;;8.93;6.60;;;;;;;;;;4993321;28;20446;-52
2021/08/28 10:53:10;;;;;;;11.18;6.45;;;;;;;;;;4993277;28;20057;-52
2021/08/28 10:55:40;;;;;;;8.77;6.57;;;;;;;;;;4990438;28;20486;-49
2021/08/28 10:58:13;;;;;;;36.38;7.22;;;;;;;;;;4993004;28;20053;-52
2021/08/28 11:00:40;;;;;;;10.77;6.03;;;;;;;;;;4992984;28;20444;-45
2021/08/28 11:03:21;;;;;;;12.95;5.63;;;;;;;;;;4993288;28;20056;-49
2021/08/28 11:05:47;;;;;;;;;;;;;;;;;;4974392;28;20043;-43
2021/08/28 11:08:17;;;;;;;7.90;5.97;;;;;;;;;;4973994;28;19972;-51
2021/08/28 11:10:43;;;;;;;14.85;8.88;;;;;;;;;;4974039;28;20047;-46
2021/08/28 11:13:12;;;;;;;25.13;13.88;;;;;;;;;;4974013;28;20031;-53
2021/08/28 11:15:39;;;;;;;10.23;6.53;;;;;;;;;;4973860;28;20023;-50
2021/08/28 11:18:06;;;;;;;16.65;11.02;;;;;;;;;;4973995;28;20027;-52
2021/08/28 11:20:34;;;;;;;22.30;15.60;;;;;;;;;;4973897;28;20058;-49
2021/08/28 11:23:01;;;;;;;31.77;16.30;;;;;;;;;;4974129;28;20029;-46
2021/08/28 11:25:32;;;;;;;26.77;17.25;;;;;;;;;;4973829;28;20031;-52
2021/08/28 11:27:59;;;;;;;16.73;10.73;;;;;;;;;;4973937;28;20054;-53
2021/08/28 11:30:40;;;;;;;7.65;5.70;;;;;;;;;;4973771;28;20035;-52
2021/08/28 11:33:10;;;;;;;12.70;9.05;;;;;;;;;;4972389;28;20364;-53
2021/08/28 11:35:40;;;;;;;16.85;10.25;;;;;;;;;;4992789;28;20026;-54
2021/08/28 11:38:07;;;;;;;14.80;9.48;;;;;;;;;;4993108;28;20023;-50
2021/08/28 11:40:37;;;;;;;14.70;9.85;;;;;;;;;;4993272;28;20061;-50
2021/08/28 11:43:04;;;;;;;24.63;13.57;;;;;;;;;;4993195;28;20034;-47
2021/08/28 11:45:32;;;;;;;9.68;5.50;;;;;;;;;;4992734;28;20034;-48
2021/08/28 11:47:58;;;;;;;33.40;18.73;;;;;;;;;;4993083;28;20523;-51
2021/08/28 11:50:34;;;;;;;17.25;10.40;;;;;;;;;;4993222;28;20498;-51
2021/08/28 11:53:00;;;;;;;15.30;9.23;;;;;;;;;;4993245;28;20109;-48
2021/08/28 11:55:33;;;;;;;20.00;11.23;;;;;;;;;;4993218;28;20105;-46
2021/08/28 11:58:02;;;;;;;13.90;8.82;;;;;;;;;;4993178;28;20037;-47
2021/08/28 12:00:29;;;;;;;11.60;7.22;;;;;;;;;;4993080;28;20026;-50
2021/08/28 12:02:56;;;;;;;16.95;9.50;;;;;;;;;;4993187;28;20383;-46
2021/08/28 12:05:23;;;;;;;8.60;4.85;;;;;;;;;;4993018;28;20121;-49
2021/08/28 12:07:55;;;;;;;14.05;10.30;;;;;;;;;;4993197;28;20364;-48
2021/08/28 12:10:22;;;;;;;14.52;8.77;;;;;;;;;;4992793;28;20089;-49
2021/08/28 12:12:57;;;;;;;8.88;7.15;;;;;;;;;;4992990;28;20022;-50
2021/08/28 12:15:24;;;;;;;19.92;10.45;;;;;;;;;;4996246;28;20032;-48
2021/08/28 12:17:51;;;;;;;41.22;21.73;;;;;;;;;;4996469;28;20019;-49
2021/08/28 12:20:23;;;;;;;29.50;19.00;;;;;;;;;;4996727;28;20023;-47
2021/08/28 12:22:50;;;;;;;19.83;12.40;;;;;;;;;;4996419;28;20109;-46
2021/08/28 12:25:16;;;;;;;23.08;13.82;;;;;;;;;;4995885;28;20034;-49
2021/08/28 12:27:44;;;;;;;29.00;18.02;;;;;;;;;;4996181;28;20328;-48
2021/08/28 12:30:10;;;;;;;16.60;10.98;;;;;;;;;;4996406;28;20030;-48
2021/08/28 12:32:36;;;;;;;24.73;18.23;;;;;;;;;;4996309;28;20037;-48
2021/08/28 12:35:03;;;;;;;10.80;8.70;;;;;;;;;;4996307;28;20022;-51
2021/08/28 12:37:32;;;;;;;58.10;34.85;;;;;;;;;;4994942;28;20467;-52
2021/08/28 12:40:00;;;;;;;70.50;44.85;;;;;;;;;;4995792;28;20069;-51
2021/08/28 12:42:26;;;;;;;81.53;50.38;;;;;;;;;;4995935;28;20033;-51
2021/08/28 12:44:58;;;;;;;53.50;34.33;;;;;;;;;;4995926;28;20046;-48
2021/08/28 12:47:25;;;;;;;35.42;22.60;;;;;;;;;;4996016;28;20023;-51
2021/08/28 12:49:52;;;;;;;42.13;23.67;;;;;;;;;;4996037;28;20446;-51
2021/08/28 12:52:18;;;;;;;38.88;22.85;;;;;;;;;;4995885;28;20383;-49
2021/08/28 12:54:49;;;;;;;36.15;21.23;;;;;;;;;;4996024;28;20419;-48
2021/08/28 12:57:19;;;;;;;38.85;23.33;;;;;;;;;;4996053;28;20029;-52
2021/08/28 12:59:45;;;;;;;66.72;40.00;;;;;;;;;;4996040;28;20102;-49
2021/08/28 13:02:21;;;;;;;37.75;22.80;;;;;;;;;;4995894;28;20478;-50
2021/08/28 13:04:48;;;;;;;53.45;30.30;;;;;;;;;;4995830;28;20053;-46
2021/08/28 13:07:16;;;;;;;64.85;31.60;;;;;;;;;;4995867;28;20026;-48
2021/08/28 13:09:56;;;;;;;52.40;28.27;;;;;;;;;;4995455;28;20054;-46
2021/08/28 13:12:41;;;;;;;65.60;34.38;;;;;;;;;;4995715;28;20041;-46
2021/08/28 13:15:08;;;;;;;35.58;19.67;;;;;;;;;;4995596;28;20379;-47
2021/08/28 13:17:37;;;;;;;16.35;8.68;;;;;;;;;;4995683;28;20022;-47
2021/08/28 13:20:04;;;;;;;17.40;9.50;;;;;;;;;;4995662;28;20038;-46
2021/08/28 13:22:31;;;;;;;17.08;9.05;;;;;;;;;;4995734;28;20117;-47
2021/08/28 13:24:57;;;;;;;25.77;13.88;;;;;;;;;;4995358;28;20029;-47
2021/08/28 13:27:23;;;;;;;40.22;21.25;;;;;;;;;;4995710;28;20034;-48
2021/08/28 13:29:52;;;;;;;32.67;20.30;;;;;;;;;;4995495;28;20109;-46
2021/08/28 13:32:19;;;;;;;79.90;43.20;;;;;;;;;;4995352;28;20114;-46
2021/08/28 13:34:47;;;;;;;21.83;12.65;;;;;;;;;;4991118;28;20030;-46
2021/08/28 13:37:14;;;;;;;74.03;41.58;;;;;;;;;;4970570;28;20592;-47
2021/08/28 13:39:41;;;;;;;46.85;27.98;;;;;;;;;;4971077;28;20138;-47
2021/08/28 13:42:18;;;;;;;50.03;28.10;;;;;;;;;;4970641;28;20157;-47
2021/08/28 13:44:44;;;;;;;25.08;15.80;;;;;;;;;;4970587;28;20019;-46
2021/08/28 13:47:10;;;;;;;25.20;16.15;;;;;;;;;;4970933;28;20030;-45
2021/08/28 13:49:37;;;;;;;22.45;14.30;;;;;;;;;;4970363;28;20137;-46
2021/08/28 13:52:05;;;;;;;14.88;9.05;;;;;;;;;;4970552;28;20034;-46
2021/08/28 13:54:31;;;;;;;15.65;9.05;;;;;;;;;;4970879;28;20443;-46
2021/08/28 13:56:57;;;;;;;14.90;6.90;;;;;;;;;;4970167;28;20033;-46
2021/08/28 13:59:23;;;;;;;15.57;9.13;;;;;;;;;;4970698;28;20863;-46
2021/08/28 14:01:49;;;;;;;14.60;8.77;;;;;;;;;;4970531;28;20037;-45
2021/08/28 14:04:15;;;;;;;16.77;6.68;;;;;;;;;;4970532;28;20022;-46
2021/08/28 14:06:41;;;;;;;7.60;4.93;;;;;;;;;;4970337;28;20034;-46
2021/08/28 14:09:07;;;;;;;7.07;4.72;;;;;;;;;;4969985;28;20073;-46
2021/08/28 14:11:33;;;;;;;11.38;6.03;;;;;;;;;;4970416;28;20490;-46
2021/08/28 14:13:59;;;;;;;12.98;6.65;;;;;;;;;;4969814;28;20082;-45
2021/08/28 14:16:25;;;;;;;16.85;5.65;;;;;;;;;;4970087;28;20873;-45
2021/08/28 14:18:52;;;;;;;9.35;6.07;;;;;;;;;;4970175;28;20022;-46
2021/08/28 14:21:18;;;;;;;16.40;8.23;;;;;;;;;;4970197;28;20525;-45
2021/08/28 14:23:45;;;;;;;12.00;6.75;;;;;;;;;;4970029;28;20105;-46
2021/08/28 14:26:11;;;;;;;16.90;9.30;;;;;;;;;;4969839;28;20545;-48
2021/08/28 14:28:37;;;;;;;24.50;11.25;;;;;;;;;;4970000;28;20019;-47
2021/08/28 14:31:04;;;;;;;38.58;19.85;;;;;;;;;;4969777;28;20166;-48
2021/08/28 14:33:30;;;;;;;33.92;16.75;;;;;;;;;;4969909;28;20033;-46